Historique des mesures à Cassis (13260), France
Quotidien Résumé Avril 5, 2017 Unités:  US    Métrique   Métrique/US
« Précédent (Jour)
Suivant (Jour) »
Quotidien Hebdomadaire Mensuel Annuel Période au choix
  Maximum: Minimum: Moyenne:
Température: 32 °F 51.6 °F 58.3 °F
Point de rosée: 32 °F 39.7 °F 42.8 °F
Humidité: Humidity % 44 % 54 %
Vitesse du vent: WindSpeedKMH mph 0.0 mph 6.8 mph
Rafales: WindSpeedGustKMH mph - -
Vent:- - South
Pression: 0 in 29.8 in -
Précipitations: 76.2 in    
Historical Graphs
 
 
Mesures pour : Avril 5, 2017
Heure Temperature Point de rosée Pression Vent Vitesse du vent Rafales Humidité Pluie (par heure) Conditions
32 °F 32 °F 0 in Calm     Humidity % 0 in SoftwareType W/m2
00:11 61.5 °F 40.5 °F 29.9 in NNE 10.1 mph 14.3 mph 46 % 0 in open2300-1.11 W/m2
01:11 60.1 °F 40.3 °F 29.9 in NNW 14.0 mph 14.0 mph 48 % 0 in open2300-1.11 W/m2
02:11 58.8 °F 40.3 °F 29.9 in North 14.0 mph 16.3 mph 50 % 0 in open2300-1.11 W/m2
04:11 57.2 °F 40.3 °F 29.8 in NNW 10.1 mph 10.1 mph 53 % 0 in open2300-1.11 W/m2
05:11 56.8 °F 39.9 °F 29.8 in NW 4.0 mph 5.8 mph 53 % 0 in open2300-1.11 W/m2
06:11 56.8 °F 40.3 °F 29.8 in Calm   8.7 mph 54 % 0 in open2300-1.11 W/m2
07:11 55.9 °F 39.9 °F 29.8 in Calm   2.6 mph 55 % 0 in open2300-1.11 W/m2
08:11 56.3 °F 39.7 °F 29.9 in NNE 10.1 mph 10.1 mph 54 % 0 in open2300-1.11 W/m2
09:11 58.8 °F 41.2 °F 29.9 in Calm     52 % 0 in open2300-1.11 W/m2
10:11 60.4 °F 41.7 °F 29.9 in NNW 8.7 mph 10.5 mph 50 % 0 in open2300-1.11 W/m2
11:11 64.6 °F 43.9 °F 29.9 in NNW 13.0 mph 18.0 mph 47 % 0 in open2300-1.11 W/m2
12:11 68.5 °F 46.8 °F 29.9 in SSE 6.8 mph 6.8 mph 46 % 0 in open2300-1.11 W/m2
13:11 70.3 °F 48.6 °F 29.9 in SSW 3.2 mph 8.2 mph 46 % 0 in open2300-1.11 W/m2
14:11 69.8 °F 48 °F 29.9 in South 2.1 mph 8.7 mph 46 % 0 in open2300-1.11 W/m2
15:11 69.1 °F 46.2 °F 29.9 in SSW 4.0 mph 9.0 mph 44 % 0 in open2300-1.11 W/m2
16:11 64.9 °F 45.3 °F 29.9 in SE 6.8 mph 8.2 mph 49 % 0 in open2300-1.11 W/m2
17:11 61.9 °F 45 °F 29.9 in ESE 5.0 mph 5.8 mph 54 % 0 in open2300-1.11 W/m2
18:11 53.4 °F 44.6 °F 30 in NE 17.2 mph 17.2 mph 72 % 38.1 in open2300-1.11 W/m2
19:11 51.6 °F 45.3 °F 30 in North 6.4 mph 20.6 mph 79 % 38.1 in open2300-1.11 W/m2
20:11 52.3 °F 45.7 °F 30 in North 1.8 mph 1.8 mph 78 % 0 in open2300-1.11 W/m2
21:11 52.3 °F 45 °F 30 in NW 11.9 mph 11.9 mph 76 % 0 in open2300-1.11 W/m2
22:11 52.9 °F 44.4 °F 30 in North 8.7 mph 10.1 mph 73 % 0 in open2300-1.11 W/m2
23:11 53.2 °F 44.1 °F 29.9 in NNW 5.8 mph 9.3 mph 71 % 0 in open2300-1.11 W/m2
Observations météo à CASSIS
WU-History script by Weather Underground - 1 mb